sensor_id;sensor_type;location;lat;lon;timestamp;pressure;altitude;pressure_sealevel;temperature;humidity
34931;BME280;21134;49.646;8.560;2023-02-22T00:01:40;100402.59;;;3.91;94.67
34931;BME280;21134;49.646;8.560;2023-02-22T00:04:15;100404.38;;;3.95;95.03
34931;BME280;21134;49.646;8.560;2023-02-22T00:06:46;100406.13;;;3.98;95.03
34931;BME280;21134;49.646;8.560;2023-02-22T00:09:13;100405.16;;;3.93;94.70
34931;BME280;21134;49.646;8.560;2023-02-22T00:11:46;100405.94;;;3.90;95.69
34931;BME280;21134;49.646;8.560;2023-02-22T00:14:13;100402.41;;;3.84;95.55
34931;BME280;21134;49.646;8.560;2023-02-22T00:16:39;100399.81;;;3.82;95.31
34931;BME280;21134;49.646;8.560;2023-02-22T00:19:06;100399.59;;;3.73;95.23
34931;BME280;21134;49.646;8.560;2023-02-22T00:21:32;100396.19;;;3.71;94.94
34931;BME280;21134;49.646;8.560;2023-02-22T00:23:59;100391.72;;;3.61;95.90
34931;BME280;21134;49.646;8.560;2023-02-22T00:26:41;100395.69;;;3.51;96.63
34931;BME280;21134;49.646;8.560;2023-02-22T00:29:09;100399.94;;;3.54;95.99
34931;BME280;21134;49.646;8.560;2023-02-22T00:31:36;100390.56;;;3.49;96.03
34931;BME280;21134;49.646;8.560;2023-02-22T00:34:03;100393.25;;;3.56;96.27
34931;BME280;21134;49.646;8.560;2023-02-22T00:36:29;100393.34;;;3.59;94.95
34931;BME280;21134;49.646;8.560;2023-02-22T00:38:56;100393.34;;;3.59;95.63
34931;BME280;21134;49.646;8.560;2023-02-22T00:41:22;100389.81;;;3.52;95.71
34931;BME280;21134;49.646;8.560;2023-02-22T00:43:49;100394.63;;;3.43;95.26
34931;BME280;21134;49.646;8.560;2023-02-22T00:46:17;100388.53;;;3.36;96.07
34931;BME280;21134;49.646;8.560;2023-02-22T00:48:43;100388.50;;;3.35;95.69
34931;BME280;21134;49.646;8.560;2023-02-22T00:51:10;100385.09;;;3.33;96.24
34931;BME280;21134;49.646;8.560;2023-02-22T00:53:36;100380.72;;;3.27;96.27
34931;BME280;21134;49.646;8.560;2023-02-22T00:56:03;100379.78;;;3.23;95.73
34931;BME280;21134;49.646;8.560;2023-02-22T00:58:30;100378.84;;;3.20;96.38
34931;BME280;21134;49.646;8.560;2023-02-22T01:00:56;100375.56;;;3.24;96.10
34931;BME280;21134;49.646;8.560;2023-02-22T01:03:24;100377.09;;;3.17;95.88
34931;BME280;21134;49.646;8.560;2023-02-22T01:05:50;100371.94;;;3.14;96.06
34931;BME280;21134;49.646;8.560;2023-02-22T01:08:17;100372.72;;;3.12;96.79
34931;BME280;21134;49.646;8.560;2023-02-22T01:10:43;100372.63;;;3.09;96.50
34931;BME280;21134;49.646;8.560;2023-02-22T01:13:11;100366.78;;;3.10;96.95
34931;BME280;21134;49.646;8.560;2023-02-22T01:15:40;100371.09;;;3.14;96.89
34931;BME280;21134;49.646;8.560;2023-02-22T01:18:09;100372.94;;;3.19;96.01
34931;BME280;21134;49.646;8.560;2023-02-22T01:20:38;100368.47;;;3.11;96.03
34931;BME280;21134;49.646;8.560;2023-02-22T01:23:05;100365.88;;;3.08;95.47
34931;BME280;21134;49.646;8.560;2023-02-22T01:25:33;100366.13;;;3.17;95.48
34931;BME280;21134;49.646;8.560;2023-02-22T01:28:00;100355.88;;;3.12;94.63
34931;BME280;21134;49.646;8.560;2023-02-22T01:30:28;100359.97;;;3.07;94.88
34931;BME280;21134;49.646;8.560;2023-02-22T01:32:57;100362.25;;;2.99;95.55
34931;BME280;21134;49.646;8.560;2023-02-22T01:35:25;100360.44;;;2.94;95.50
34931;BME280;21134;49.646;8.560;2023-02-22T01:37:53;100355.50;;;2.98;95.94
34931;BME280;21134;49.646;8.560;2023-02-22T01:40:22;100349.50;;;2.95;95.02
34931;BME280;21134;49.646;8.560;2023-02-22T01:42:51;100354.94;;;3.09;94.65
34931;BME280;21134;49.646;8.560;2023-02-22T01:45:52;100351.28;;;2.97;94.49
34931;BME280;21134;49.646;8.560;2023-02-22T01:48:23;100352.69;;;2.88;95.09
34931;BME280;21134;49.646;8.560;2023-02-22T01:50:53;100339.22;;;2.89;95.54
34931;BME280;21134;49.646;8.560;2023-02-22T01:53:27;100340.75;;;2.84;95.63
34931;BME280;21134;49.646;8.560;2023-02-22T01:55:55;100338.25;;;2.84;94.95
34931;BME280;21134;49.646;8.560;2023-02-22T01:58:24;100338.16;;;2.80;95.76
34931;BME280;21134;49.646;8.560;2023-02-22T02:00:52;100339.81;;;2.80;95.86
34931;BME280;21134;49.646;8.560;2023-02-22T02:03:21;100338.28;;;2.85;95.81
34931;BME280;21134;49.646;8.560;2023-02-22T02:05:53;100337.72;;;2.95;95.50
34931;BME280;21134;49.646;8.560;2023-02-22T02:08:30;100329.28;;;2.95;94.84
34931;BME280;21134;49.646;8.560;2023-02-22T02:11:00;100328.13;;;2.84;94.59
34931;BME280;21134;49.646;8.560;2023-02-22T02:13:27;100325.75;;;2.88;95.17
34931;BME280;21134;49.646;8.560;2023-02-22T02:15:54;100329.78;;;2.82;95.21
34931;BME280;21134;49.646;8.560;2023-02-22T02:18:22;100324.59;;;2.77;95.91
34931;BME280;21134;49.646;8.560;2023-02-22T02:24:05;100316.06;;;2.73;95.47
34931;BME280;21134;49.646;8.560;2023-02-22T02:26:50;100308.50;;;2.73;96.32
34931;BME280;21134;49.646;8.560;2023-02-22T02:32:23;100309.22;;;2.69;96.21
34931;BME280;21134;49.646;8.560;2023-02-22T02:34:57;100305.03;;;2.70;96.49
34931;BME280;21134;49.646;8.560;2023-02-22T02:37:34;100302.56;;;2.71;96.36
34931;BME280;21134;49.646;8.560;2023-02-22T02:40:10;100304.19;;;2.71;96.49
34931;BME280;21134;49.646;8.560;2023-02-22T02:42:50;100301.91;;;2.78;96.01
34931;BME280;21134;49.646;8.560;2023-02-22T02:45:22;100296.84;;;2.78;94.92
34931;BME280;21134;49.646;8.560;2023-02-22T02:47:54;100301.00;;;2.76;95.64
34931;BME280;21134;49.646;8.560;2023-02-22T02:50:25;100296.72;;;2.74;95.04
34931;BME280;21134;49.646;8.560;2023-02-22T02:52:55;100293.25;;;2.70;95.17
34931;BME280;21134;49.646;8.560;2023-02-22T02:55:23;100289.78;;;2.67;96.55
34931;BME280;21134;49.646;8.560;2023-02-22T02:57:49;100289.59;;;2.59;96.75
34931;BME280;21134;49.646;8.560;2023-02-22T03:00:20;100292.78;;;2.53;96.18
34931;BME280;21134;49.646;8.560;2023-02-22T03:02:58;100298.84;;;2.59;96.74
34931;BME280;21134;49.646;8.560;2023-02-22T03:05:41;100291.97;;;2.54;97.09
34931;BME280;21134;49.646;8.560;2023-02-22T03:08:16;100292.06;;;2.58;96.00
34931;BME280;21134;49.646;8.560;2023-02-22T03:10:55;100289.31;;;2.50;96.56
34931;BME280;21134;49.646;8.560;2023-02-22T03:13:29;100280.16;;;2.53;94.92
34931;BME280;21134;49.646;8.560;2023-02-22T03:16:03;100284.78;;;2.38;95.66
34931;BME280;21134;49.646;8.560;2023-02-22T03:18:45;100287.09;;;2.30;96.83
34931;BME280;21134;49.646;8.560;2023-02-22T03:21:22;100288.06;;;2.36;96.98
34931;BME280;21134;49.646;8.560;2023-02-22T03:23:55;100287.19;;;2.33;96.69
34931;BME280;21134;49.646;8.560;2023-02-22T03:26:28;100282.81;;;2.29;96.85
34931;BME280;21134;49.646;8.560;2023-02-22T03:28:57;100283.72;;;2.30;96.50
34931;BME280;21134;49.646;8.560;2023-02-22T03:31:33;100283.56;;;2.25;96.57
34931;BME280;21134;49.646;8.560;2023-02-22T03:34:06;100290.06;;;2.17;97.28
34931;BME280;21134;49.646;8.560;2023-02-22T03:36:36;100278.16;;;2.13;97.29
34931;BME280;21134;49.646;8.560;2023-02-22T03:39:06;100278.97;;;2.12;97.25
34931;BME280;21134;49.646;8.560;2023-02-22T03:41:37;100278.97;;;2.12;97.33
34931;BME280;21134;49.646;8.560;2023-02-22T03:44:07;100283.97;;;2.10;97.06
34931;BME280;21134;49.646;8.560;2023-02-22T03:46:37;100281.44;;;2.10;97.07
34931;BME280;21134;49.646;8.560;2023-02-22T03:49:09;100277.38;;;2.14;96.79
34931;BME280;21134;49.646;8.560;2023-02-22T03:51:37;100286.44;;;2.09;96.99
34931;BME280;21134;49.646;8.560;2023-02-22T03:54:05;100285.69;;;2.12;96.16
34931;BME280;21134;49.646;8.560;2023-02-22T03:56:35;100276.25;;;2.06;96.03
34931;BME280;21134;49.646;8.560;2023-02-22T03:59:04;100272.78;;;2.02;96.23
34931;BME280;21134;49.646;8.560;2023-02-22T04:01:32;100278.56;;;1.98;96.35
34931;BME280;21134;49.646;8.560;2023-02-22T04:03:59;100276.06;;;2.00;96.59
34931;BME280;21134;49.646;8.560;2023-02-22T04:06:27;100275.97;;;1.97;96.57
34931;BME280;21134;49.646;8.560;2023-02-22T04:08:54;100266.56;;;1.91;96.83
34931;BME280;21134;49.646;8.560;2023-02-22T04:11:21;100269.97;;;1.92;96.73
34931;BME280;21134;49.646;8.560;2023-02-22T04:13:48;100264.00;;;1.90;96.33
34931;BME280;21134;49.646;8.560;2023-02-22T04:16:14;100268.19;;;1.89;96.16
34931;BME280;21134;49.646;8.560;2023-02-22T04:18:41;100272.28;;;1.85;96.48
34931;BME280;21134;49.646;8.560;2023-02-22T04:21:07;100271.59;;;1.91;95.69
34931;BME280;21134;49.646;8.560;2023-02-22T04:23:35;100267.34;;;1.89;95.73
34931;BME280;21134;49.646;8.560;2023-02-22T04:26:02;100263.09;;;1.88;95.55
34931;BME280;21134;49.646;8.560;2023-02-22T04:28:28;100266.31;;;1.82;96.62
34931;BME280;21134;49.646;8.560;2023-02-22T04:30:55;100262.06;;;1.81;96.51
34931;BME280;21134;49.646;8.560;2023-02-22T04:33:22;100266.31;;;1.82;96.51
34931;BME280;21134;49.646;8.560;2023-02-22T04:35:48;100256.22;;;1.82;96.29
34931;BME280;21134;49.646;8.560;2023-02-22T04:38:15;100254.56;;;1.84;96.29
34931;BME280;21134;49.646;8.560;2023-02-22T04:40:43;100263.81;;;1.83;95.97
34931;BME280;21134;49.646;8.560;2023-02-22T04:43:10;100259.72;;;1.87;96.42
34931;BME280;21134;49.646;8.560;2023-02-22T04:45:36;100261.41;;;1.88;96.48
34931;BME280;21134;49.646;8.560;2023-02-22T04:48:03;100258.31;;;1.97;96.56
34931;BME280;21134;49.646;8.560;2023-02-22T04:50:29;100264.84;;;1.90;96.45
34931;BME280;21134;49.646;8.560;2023-02-22T04:52:56;100256.47;;;1.91;96.33
34931;BME280;21134;49.646;8.560;2023-02-22T04:55:22;100260.56;;;1.88;97.17
34931;BME280;21134;49.646;8.560;2023-02-22T04:57:50;100263.09;;;1.88;97.30
34931;BME280;21134;49.646;8.560;2023-02-22T05:00:18;100262.16;;;1.84;97.71
34931;BME280;21134;49.646;8.560;2023-02-22T05:02:46;100256.25;;;1.83;97.78
34931;BME280;21134;49.646;8.560;2023-02-22T05:05:12;100256.28;;;1.85;98.10
34931;BME280;21134;49.646;8.560;2023-02-22T05:07:39;100258.78;;;1.83;98.38
34931;BME280;21134;49.646;8.560;2023-02-22T05:10:05;100257.06;;;1.82;98.09
34931;BME280;21134;49.646;8.560;2023-02-22T05:12:32;100263.78;;;1.82;98.32
34931;BME280;21134;49.646;8.560;2023-02-22T05:15:00;100257.00;;;1.81;98.13
34931;BME280;21134;49.646;8.560;2023-02-22T05:17:26;100258.78;;;1.83;97.98
34931;BME280;21134;49.646;8.560;2023-02-22T05:19:53;100265.59;;;1.86;97.32
34931;BME280;21134;49.646;8.560;2023-02-22T05:22:19;100255.31;;;1.80;97.04
34931;BME280;21134;49.646;8.560;2023-02-22T05:24:46;100260.34;;;1.80;96.90
34931;BME280;21134;49.646;8.560;2023-02-22T05:27:12;100255.34;;;1.81;97.43
34931;BME280;21134;49.646;8.560;2023-02-22T05:29:39;100257.06;;;1.82;96.94
34931;BME280;21134;49.646;8.560;2023-02-22T05:32:07;100256.91;;;1.78;97.38
34931;BME280;21134;49.646;8.560;2023-02-22T05:34:33;100254.53;;;1.82;97.72
34931;BME280;21134;49.646;8.560;2023-02-22T05:37:00;100261.28;;;1.83;97.82
34931;BME280;21134;49.646;8.560;2023-02-22T05:39:27;100254.81;;;1.92;97.24
34931;BME280;21134;49.646;8.560;2023-02-22T05:41:54;100254.03;;;1.94;96.17
34931;BME280;21134;49.646;8.560;2023-02-22T05:44:20;100252.25;;;1.90;96.86
34931;BME280;21134;49.646;8.560;2023-02-22T05:46:47;100254.84;;;1.93;96.83
34931;BME280;21134;49.646;8.560;2023-02-22T05:49:15;100254.84;;;1.93;96.82
34931;BME280;21134;49.646;8.560;2023-02-22T05:51:41;100255.72;;;1.94;96.80
34931;BME280;21134;49.646;8.560;2023-02-22T05:54:08;100257.19;;;1.87;98.00
34931;BME280;21134;49.646;8.560;2023-02-22T05:56:34;100246.34;;;1.90;98.35
34931;BME280;21134;49.646;8.560;2023-02-22T05:59:01;100254.97;;;1.98;98.30
34931;BME280;21134;49.646;8.560;2023-02-22T06:01:28;100247.59;;;2.04;98.45
34931;BME280;21134;49.646;8.560;2023-02-22T06:03:54;100250.19;;;2.05;98.36
34931;BME280;21134;49.646;8.560;2023-02-22T06:06:22;100252.53;;;2.01;99.45
34931;BME280;21134;49.646;8.560;2023-02-22T06:08:49;100250.03;;;2.01;100.00
34931;BME280;21134;49.646;8.560;2023-02-22T06:11:15;100260.91;;;1.98;100.00
34931;BME280;21134;49.646;8.560;2023-02-22T06:13:48;100259.16;;;1.96;100.00
34931;BME280;21134;49.646;8.560;2023-02-22T06:16:14;100254.91;;;1.95;100.00
34931;BME280;21134;49.646;8.560;2023-02-22T06:18:41;100258.47;;;2.01;100.00
34931;BME280;21134;49.646;8.560;2023-02-22T06:21:07;100248.56;;;2.07;100.00
34931;BME280;21134;49.646;8.560;2023-02-22T06:23:35;100252.88;;;2.12;100.00
34931;BME280;21134;49.646;8.560;2023-02-22T06:26:02;100257.78;;;2.07;100.00
34931;BME280;21134;49.646;8.560;2023-02-22T06:28:28;100259.44;;;2.06;100.00
34931;BME280;21134;49.646;8.560;2023-02-22T06:30:55;100269.72;;;2.13;100.00
34931;BME280;21134;49.646;8.560;2023-02-22T06:33:21;100273.09;;;2.13;100.00
34931;BME280;21134;49.646;8.560;2023-02-22T06:35:48;100272.63;;;2.25;100.00
34931;BME280;21134;49.646;8.560;2023-02-22T06:38:20;100270.03;;;2.23;100.00
34931;BME280;21134;49.646;8.560;2023-02-22T06:40:48;100270.19;;;2.28;100.00
34931;BME280;21134;49.646;8.560;2023-02-22T06:43:15;100269.34;;;2.29;100.00
34931;BME280;21134;49.646;8.560;2023-02-22T06:45:41;100276.94;;;2.29;100.00
34931;BME280;21134;49.646;8.560;2023-02-22T06:48:08;100277.94;;;2.34;100.00
34931;BME280;21134;49.646;8.560;2023-02-22T06:50:34;100278.03;;;2.39;100.00
34931;BME280;21134;49.646;8.560;2023-02-22T06:53:01;100276.56;;;2.45;100.00
34931;BME280;21134;49.646;8.560;2023-02-22T06:55:29;100276.72;;;2.51;100.00
34931;BME280;21134;49.646;8.560;2023-02-22T06:57:57;100282.09;;;2.62;100.00
34931;BME280;21134;49.646;8.560;2023-02-22T07:00:25;100283.81;;;2.65;100.00
34931;BME280;21134;49.646;8.560;2023-02-22T07:02:54;100287.22;;;2.65;100.00
34931;BME280;21134;49.646;8.560;2023-02-22T07:05:22;100286.41;;;2.66;100.00
34931;BME280;21134;49.646;8.560;2023-02-22T07:07:50;100289.00;;;2.69;100.00
34931;BME280;21134;49.646;8.560;2023-02-22T07:10:20;100293.50;;;2.79;100.00
34931;BME280;21134;49.646;8.560;2023-02-22T07:12:46;100292.91;;;2.88;100.00
34931;BME280;21134;49.646;8.560;2023-02-22T07:15:16;100295.44;;;2.90;100.00
34931;BME280;21134;49.646;8.560;2023-02-22T07:17:43;100292.31;;;2.97;100.00
34931;BME280;21134;49.646;8.560;2023-02-22T07:20:09;100294.91;;;3.00;100.00
34931;BME280;21134;49.646;8.560;2023-02-22T07:22:36;100305.19;;;3.08;100.00
34931;BME280;21134;49.646;8.560;2023-02-22T07:25:03;100312.00;;;3.10;100.00
34931;BME280;21134;49.646;8.560;2023-02-22T07:27:30;100314.03;;;3.23;100.00
34931;BME280;21134;49.646;8.560;2023-02-22T07:29:56;100313.19;;;3.23;100.00
34931;BME280;21134;49.646;8.560;2023-02-22T07:32:24;100311.44;;;3.20;100.00
34931;BME280;21134;49.646;8.560;2023-02-22T07:34:50;100317.50;;;3.27;100.00
34931;BME280;21134;49.646;8.560;2023-02-22T07:37:17;100315.06;;;3.32;100.00
34931;BME280;21134;49.646;8.560;2023-02-22T07:39:45;100314.59;;;3.45;100.00
34931;BME280;21134;49.646;8.560;2023-02-22T07:42:11;100317.91;;;3.44;100.00
34931;BME280;21134;49.646;8.560;2023-02-22T07:44:38;100315.63;;;3.53;100.00
34931;BME280;21134;49.646;8.560;2023-02-22T07:47:04;100315.59;;;3.52;100.00
34931;BME280;21134;49.646;8.560;2023-02-22T07:49:32;100317.44;;;3.59;100.00
34931;BME280;21134;49.646;8.560;2023-02-22T07:51:59;100311.72;;;3.66;100.00
34931;BME280;21134;49.646;8.560;2023-02-22T07:54:25;100312.72;;;3.72;100.00
34931;BME280;21134;49.646;8.560;2023-02-22T07:56:52;100309.47;;;3.77;100.00
34931;BME280;21134;49.646;8.560;2023-02-22T07:59:18;100305.47;;;3.86;100.00
34931;BME280;21134;49.646;8.560;2023-02-22T08:01:48;100313.22;;;3.94;100.00
34931;BME280;21134;49.646;8.560;2023-02-22T08:04:15;100305.78;;;4.00;100.00
34931;BME280;21134;49.646;8.560;2023-02-22T08:06:42;100304.22;;;4.05;100.00
34931;BME280;21134;49.646;8.560;2023-02-22T08:09:10;100305.25;;;4.15;100.00
34931;BME280;21134;49.646;8.560;2023-02-22T08:11:37;100296.06;;;4.18;100.00
34931;BME280;21134;49.646;8.560;2023-02-22T08:14:03;100300.56;;;4.33;100.00
34931;BME280;21134;49.646;8.560;2023-02-22T08:16:29;100301.63;;;4.43;100.00
34931;BME280;21134;49.646;8.560;2023-02-22T08:18:56;100299.47;;;4.61;100.00
34931;BME280;21134;49.646;8.560;2023-02-22T08:21:22;100294.56;;;4.69;100.00
34931;BME280;21134;49.646;8.560;2023-02-22T08:23:51;100291.38;;;4.79;100.00
34931;BME280;21134;49.646;8.560;2023-02-22T08:26:18;100295.66;;;4.83;100.00
34931;BME280;21134;49.646;8.560;2023-02-22T08:28:45;100297.47;;;4.89;100.00
34931;BME280;21134;49.646;8.560;2023-02-22T08:31:11;100288.25;;;4.94;100.00
34931;BME280;21134;49.646;8.560;2023-02-22T08:33:37;100292.69;;;5.04;100.00
34931;BME280;21134;49.646;8.560;2023-02-22T08:36:06;100287.75;;;5.12;100.00
34931;BME280;21134;49.646;8.560;2023-02-22T08:38:32;100292.19;;;5.25;100.00
34931;BME280;21134;49.646;8.560;2023-02-22T08:41:00;100289.03;;;5.39;99.77
34931;BME280;21134;49.646;8.560;2023-02-22T08:43:27;100291.88;;;5.55;99.43
34931;BME280;21134;49.646;8.560;2023-02-22T08:45:53;100291.38;;;5.79;98.28
34931;BME280;21134;49.646;8.560;2023-02-22T08:48:20;100306.00;;;5.93;97.48
34931;BME280;21134;49.646;8.560;2023-02-22T08:50:46;100296.13;;;6.11;97.80
34931;BME280;21134;49.646;8.560;2023-02-22T08:53:15;100291.28;;;6.29;97.37
34931;BME280;21134;49.646;8.560;2023-02-22T08:55:42;100294.91;;;6.50;96.45
34931;BME280;21134;49.646;8.560;2023-02-22T08:58:11;100296.78;;;6.63;95.89
34931;BME280;21134;49.646;8.560;2023-02-22T09:00:38;100298.69;;;6.80;96.67
34931;BME280;21134;49.646;8.560;2023-02-22T09:03:06;100292.88;;;6.94;95.32
34931;BME280;21134;49.646;8.560;2023-02-22T09:05:33;100297.28;;;7.09;94.42
34931;BME280;21134;49.646;8.560;2023-02-22T09:08:00;100299.09;;;7.24;93.98
34931;BME280;21134;49.646;8.560;2023-02-22T09:10:28;100293.34;;;7.40;94.59
34931;BME280;21134;49.646;8.560;2023-02-22T09:12:56;100294.28;;;7.55;93.72
34931;BME280;21134;49.646;8.560;2023-02-22T09:15:26;100293.50;;;7.60;92.19
34931;BME280;21134;49.646;8.560;2023-02-22T09:17:53;100289.22;;;7.59;90.98
34931;BME280;21134;49.646;8.560;2023-02-22T09:20:21;100297.91;;;7.84;89.18
34931;BME280;21134;49.646;8.560;2023-02-22T09:22:48;100298.81;;;7.91;89.24
34931;BME280;21134;49.646;8.560;2023-02-22T09:25:16;100294.59;;;7.93;87.88
34931;BME280;21134;49.646;8.560;2023-02-22T09:27:46;100289.63;;;8.14;85.19
34931;BME280;21134;49.646;8.560;2023-02-22T09:30:16;100286.28;;;8.25;85.25
34931;BME280;21134;49.646;8.560;2023-02-22T09:32:44;100283.00;;;8.43;84.55
34931;BME280;21134;49.646;8.560;2023-02-22T09:35:11;100276.19;;;8.42;84.03
34931;BME280;21134;49.646;8.560;2023-02-22T09:37:37;100277.94;;;8.55;84.48
34931;BME280;21134;49.646;8.560;2023-02-22T09:40:05;100269.50;;;8.71;82.57
34931;BME280;21134;49.646;8.560;2023-02-22T09:42:40;100270.38;;;8.75;82.81
34931;BME280;21134;49.646;8.560;2023-02-22T09:45:14;100266.06;;;8.66;82.26
34931;BME280;21134;49.646;8.560;2023-02-22T09:47:48;100263.56;;;8.81;82.14
34931;BME280;21134;49.646;8.560;2023-02-22T09:50:19;100262.72;;;8.82;82.43
34931;BME280;21134;49.646;8.560;2023-02-22T09:52:53;100253.38;;;8.86;82.35
34931;BME280;21134;49.646;8.560;2023-02-22T09:55:28;100257.66;;;9.05;82.27
34931;BME280;21134;49.646;8.560;2023-02-22T09:58:00;100263.59;;;8.98;81.25
34931;BME280;21134;49.646;8.560;2023-02-22T10:00:30;100261.91;;;8.94;82.30
34931;BME280;21134;49.646;8.560;2023-02-22T10:03:10;100262.78;;;9.12;82.31
34931;BME280;21134;49.646;8.560;2023-02-22T10:05:41;100259.41;;;9.36;82.29
34931;BME280;21134;49.646;8.560;2023-02-22T10:08:12;100248.31;;;9.46;79.79
34931;BME280;21134;49.646;8.560;2023-02-22T10:10:41;100242.34;;;9.53;79.45
34931;BME280;21134;49.646;8.560;2023-02-22T10:13:15;100244.91;;;9.64;79.29
34931;BME280;21134;49.646;8.560;2023-02-22T10:15:50;100238.94;;;9.63;78.89
34931;BME280;21134;49.646;8.560;2023-02-22T10:18:35;100235.53;;;9.72;78.77
34931;BME280;21134;49.646;8.560;2023-02-22T10:21:09;100239.78;;;9.77;77.00
34931;BME280;21134;49.646;8.560;2023-02-22T10:23:41;100229.53;;;9.84;77.64
34931;BME280;21134;49.646;8.560;2023-02-22T10:26:14;100236.31;;;9.94;77.58
34931;BME280;21134;49.646;8.560;2023-02-22T10:28:46;100232.88;;;10.12;76.70
34931;BME280;21134;49.646;8.560;2023-02-22T10:31:20;100232.84;;;10.22;76.65
34931;BME280;21134;49.646;8.560;2023-02-22T10:33:53;100231.97;;;10.25;75.68
34931;BME280;21134;49.646;8.560;2023-02-22T10:36:21;100233.69;;;10.23;75.85
34931;BME280;21134;49.646;8.560;2023-02-22T10:38:53;100226.84;;;10.23;76.28
34931;BME280;21134;49.646;8.560;2023-02-22T10:41:27;100226.81;;;10.39;75.14
34931;BME280;21134;49.646;8.560;2023-02-22T10:43:54;100225.97;;;10.40;74.12
34931;BME280;21134;49.646;8.560;2023-02-22T10:46:21;100233.63;;;10.40;74.50
34931;BME280;21134;49.646;8.560;2023-02-22T10:48:53;100233.53;;;10.61;74.83
34931;BME280;21134;49.646;8.560;2023-02-22T10:51:21;100233.59;;;10.54;73.30
34931;BME280;21134;49.646;8.560;2023-02-22T10:53:57;100225.75;;;10.78;73.42
34931;BME280;21134;49.646;8.560;2023-02-22T10:56:25;100224.84;;;10.91;73.11
34931;BME280;21134;49.646;8.560;2023-02-22T10:58:54;100226.50;;;10.96;72.23
34931;BME280;21134;49.646;8.560;2023-02-22T11:01:26;100219.72;;;10.91;72.61
34931;BME280;21134;49.646;8.560;2023-02-22T11:03:59;100212.81;;;11.03;71.83
34931;BME280;21134;49.646;8.560;2023-02-22T11:06:27;100216.09;;;11.20;71.30
34931;BME280;21134;49.646;8.560;2023-02-22T11:09:04;100212.63;;;11.26;70.74
34931;BME280;21134;49.646;8.560;2023-02-22T11:11:35;100219.38;;;11.36;70.11
34931;BME280;21134;49.646;8.560;2023-02-22T11:14:01;100206.47;;;11.45;70.36
34931;BME280;21134;49.646;8.560;2023-02-22T11:16:32;100205.56;;;11.52;70.28
34931;BME280;21134;49.646;8.560;2023-02-22T11:19:10;100204.63;;;11.59;70.44
34931;BME280;21134;49.646;8.560;2023-02-22T11:21:38;100203.66;;;11.73;70.33
34931;BME280;21134;49.646;8.560;2023-02-22T11:24:07;100199.25;;;11.85;70.06
34931;BME280;21134;49.646;8.560;2023-02-22T11:26:40;100188.88;;;11.96;69.26
34931;BME280;21134;49.646;8.560;2023-02-22T11:29:11;100193.19;;;11.94;68.38
34931;BME280;21134;49.646;8.560;2023-02-22T11:31:42;100191.44;;;11.98;69.02
34931;BME280;21134;49.646;8.560;2023-02-22T11:34:28;100189.59;;;12.10;69.02
34931;BME280;21134;49.646;8.560;2023-02-22T11:36:55;100187.91;;;12.09;67.39
34931;BME280;21134;49.646;8.560;2023-02-22T11:39:24;100186.25;;;12.04;68.37
34931;BME280;21134;49.646;8.560;2023-02-22T11:41:51;100181.78;;;12.20;67.81
34931;BME280;21134;49.646;8.560;2023-02-22T11:44:23;100178.41;;;12.16;67.82
34931;BME280;21134;49.646;8.560;2023-02-22T11:46:51;100179.19;;;12.21;68.27
34931;BME280;21134;49.646;8.560;2023-02-22T11:49:20;100174.72;;;12.36;68.27
34931;BME280;21134;49.646;8.560;2023-02-22T11:52:17;100174.56;;;12.48;67.77
34931;BME280;21134;49.646;8.560;2023-02-22T11:55:07;100171.13;;;12.49;67.39
34931;BME280;21134;49.646;8.560;2023-02-22T11:57:54;100159.97;;;12.51;66.69
34931;BME280;21134;49.646;8.560;2023-02-22T12:00:32;100158.13;;;12.60;65.64
34931;BME280;21134;49.646;8.560;2023-02-22T12:03:27;100152.72;;;12.79;65.69
34931;BME280;21134;49.646;8.560;2023-02-22T12:06:06;100155.38;;;12.73;65.08
34931;BME280;21134;49.646;8.560;2023-02-22T12:08:47;100151.66;;;12.93;66.27
34931;BME280;21134;49.646;8.560;2023-02-22T12:11:21;100147.31;;;12.95;65.94
34931;BME280;21134;49.646;8.560;2023-02-22T12:14:00;100143.66;;;13.10;65.57
34931;BME280;21134;49.646;8.560;2023-02-22T12:16:40;100140.34;;;13.03;65.64
34931;BME280;21134;49.646;8.560;2023-02-22T12:19:18;100142.88;;;13.04;65.47
34931;BME280;21134;49.646;8.560;2023-02-22T12:21:52;100137.78;;;13.03;65.23
34931;BME280;21134;49.646;8.560;2023-02-22T12:24:23;100132.53;;;13.08;65.17
34931;BME280;21134;49.646;8.560;2023-02-22T12:26:54;100135.91;;;13.13;65.18
34931;BME280;21134;49.646;8.560;2023-02-22T12:29:27;100128.25;;;13.10;64.94
34931;BME280;21134;49.646;8.560;2023-02-22T12:32:00;100128.09;;;13.19;64.81
34931;BME280;21134;49.646;8.560;2023-02-22T12:34:32;100133.09;;;13.26;64.90
34931;BME280;21134;49.646;8.560;2023-02-22T12:37:08;100129.69;;;13.28;64.23
34931;BME280;21134;49.646;8.560;2023-02-22T12:39:45;100123.56;;;13.35;63.73
34931;BME280;21134;49.646;8.560;2023-02-22T12:42:17;100120.09;;;13.37;63.92
34931;BME280;21134;49.646;8.560;2023-02-22T12:44:51;100123.50;;;13.36;63.10
34931;BME280;21134;49.646;8.560;2023-02-22T12:47:25;100119.16;;;13.40;64.06
34931;BME280;21134;49.646;8.560;2023-02-22T12:50:00;100112.81;;;13.59;63.23
34931;BME280;21134;49.646;8.560;2023-02-22T12:52:40;100121.03;;;13.75;63.14
34931;BME280;21134;49.646;8.560;2023-02-22T12:55:14;100119.53;;;13.65;62.11
34931;BME280;21134;49.646;8.560;2023-02-22T12:57:48;100115.75;;;13.83;62.78
34931;BME280;21134;49.646;8.560;2023-02-22T13:00:19;100114.03;;;13.83;61.82
34931;BME280;21134;49.646;8.560;2023-02-22T13:02:56;100118.09;;;13.95;61.58
34931;BME280;21134;49.646;8.560;2023-02-22T13:05:24;100112.72;;;14.06;61.24
34931;BME280;21134;49.646;8.560;2023-02-22T13:08:01;100112.50;;;14.15;60.67
34931;BME280;21134;49.646;8.560;2023-02-22T13:10:55;100110.78;;;14.15;60.15
34931;BME280;21134;49.646;8.560;2023-02-22T13:13:33;100106.59;;;14.10;60.26
34931;BME280;21134;49.646;8.560;2023-02-22T13:16:07;100100.16;;;14.31;59.96